Time;durP1;ratioP1;P1;durP2;ratioP2;P2;SDS_P1;SDS_P2;PMS_P1;PMS_P2;Temp;Humidity;BMP_temperature;BMP_pressure;BME280_temperature;BME280_humidity;BME280_pressure;Samples;Min_cycle;Max_cycle;Signal;HPM_P1;HPM_P2
2024/04/10 00:09:56;;;;;;;;;;;6.80;99.90;;;;;;23022076;25;19927;-82
2024/04/10 00:19:56;;;;;;;;;;;6.80;99.90;;;;;;22995217;25;19976;-80
2024/04/10 00:29:57;;;;;;;;;;;6.60;99.90;;;;;;23016008;25;19935;-81
2024/04/10 00:39:58;;;;;;;;;;;6.60;99.90;;;;;;22950328;25;20319;-81
2024/04/10 00:49:58;;;;;;;;;;;6.50;99.90;;;;;;22984312;25;19935;-82
2024/04/10 00:59:59;;;;;;;;;;;6.30;99.90;;;;;;22926219;25;20390;-79
2024/04/10 01:10:00;;;;;;;;;;;6.30;99.90;;;;;;22953205;25;19934;-77
2024/04/10 01:20:05;;;;;;;;;;;6.00;99.90;;;;;;23009815;25;19950;-76
2024/04/10 01:30:06;;;;;;;;;;;6.00;99.90;;;;;;23024876;25;19934;-81
2024/04/10 01:40:07;;;;;;;;;;;5.80;99.90;;;;;;22935834;25;20024;-79
2024/04/10 01:50:08;;;;;;;;;;;5.60;99.90;;;;;;22933184;25;19943;-80
2024/04/10 02:00:10;;;;;;;;;;;5.60;99.90;;;;;;22958569;25;20284;-81
2024/04/10 02:10:13;;;;;;;;;;;5.70;99.90;;;;;;22956169;25;19942;-81
2024/04/10 02:20:16;;;;;;;;;;;5.40;99.90;;;;;;22975599;25;19927;-80
2024/04/10 02:30:16;;;;;;;;;;;5.40;99.90;;;;;;22932891;25;19942;-82
2024/04/10 02:41:51;;;;;;;;;;;5.40;99.90;;;;;;22777965;25;19931;-81
2024/04/10 02:51:52;;;;;;;;;;;5.50;99.90;;;;;;22761768;25;19939;-82
2024/04/10 03:01:53;;;;;;;;;;;5.20;99.90;;;;;;22763418;25;19928;-82
2024/04/10 03:11:54;;;;;;;;;;;5.00;99.90;;;;;;22780610;26;20374;-82
2024/04/10 03:21:54;;;;;;;;;;;4.80;99.90;;;;;;22763450;25;19928;-82
2024/04/10 03:31:55;;;;;;;;;;;4.80;99.90;;;;;;22746767;25;19961;-80
2024/04/10 03:41:56;;;;;;;;;;;4.70;99.90;;;;;;22761213;26;19934;-82
2024/04/10 03:51:57;;;;;;;;;;;4.50;99.90;;;;;;22697459;26;19928;-80
2024/04/10 04:01:57;;;;;;;;;;;4.40;99.90;;;;;;22683124;26;19935;-84
2024/04/10 04:11:58;;;;;;;;;;;4.50;99.90;;;;;;22683873;26;19936;-80
2024/04/10 04:21:59;;;;;;;;;;;4.70;99.90;;;;;;22679302;26;19935;-80
2024/04/10 04:31:59;;;;;;;;;;;4.80;99.90;;;;;;22628977;26;19933;-80
2024/04/10 04:42:00;;;;;;;;;;;4.70;99.90;;;;;;22714754;26;20384;-79
2024/04/10 04:52:01;;;;;;;;;;;4.70;99.90;;;;;;22683107;26;20371;-80
2024/04/10 05:02:01;;;;;;;;;;;4.60;99.90;;;;;;22740838;26;19993;-79
2024/04/10 05:12:02;;;;;;;;;;;4.70;99.90;;;;;;22745621;26;19940;-80
2024/04/10 05:22:03;;;;;;;;;;;4.70;99.90;;;;;;22650851;26;19928;-79
2024/04/10 05:32:04;;;;;;;;;;;4.70;99.90;;;;;;22622268;26;19932;-80
2024/04/10 05:42:06;;;;;;;;;;;4.80;99.90;;;;;;22643963;26;20269;-80
2024/04/10 05:52:07;;;;;;;;;;;4.50;99.90;;;;;;22663765;26;20005;-79
2024/04/10 06:02:08;;;;;;;;;;;4.80;99.90;;;;;;22643596;26;19928;-79
2024/04/10 06:12:08;;;;;;;;;;;5.10;99.90;;;;;;22660358;26;19943;-80
2024/04/10 06:22:09;;;;;;;;;;;5.30;99.90;;;;;;22693622;26;19928;-80
2024/04/10 06:32:11;;;;;;;;;;;5.40;99.90;;;;;;22690036;26;19936;-80
2024/04/10 06:42:11;;;;;;;;;;;5.50;99.90;;;;;;22737734;26;19994;-79
2024/04/10 06:52:12;;;;;;;;;;;5.40;99.90;;;;;;22628462;26;19932;-80
2024/04/10 07:02:13;;;;;;;;;;;5.50;99.90;;;;;;22579591;26;20001;-79
2024/04/10 07:12:14;;;;;;;;;;;5.20;99.90;;;;;;22584963;26;19929;-80
2024/04/10 07:22:15;;;;;;;;;;;5.70;99.90;;;;;;22588926;26;19937;-79
2024/04/10 07:32:16;;;;;;;;;;;6.30;99.90;;;;;;22596098;26;20260;-80
2024/04/10 07:42:16;;;;;;;;;;;6.30;99.90;;;;;;22602151;26;19936;-80
2024/04/10 07:52:17;;;;;;;;;;;6.50;99.90;;;;;;22674368;26;19999;-81
2024/04/10 08:02:18;;;;;;;;;;;7.10;99.90;;;;;;22626506;26;19928;-78
2024/04/10 08:12:19;;;;;;;;;;;7.60;99.90;;;;;;22738551;26;19928;-79
2024/04/10 08:22:20;;;;;;;;;;;8.50;99.90;;;;;;22705462;26;19936;-80
2024/04/10 08:32:21;;;;;;;;;;;9.60;99.90;;;;;;22583657;26;19929;-78
2024/04/10 08:42:21;;;;;;;;;;;10.80;99.90;;;;;;22556702;26;19960;-76
2024/04/10 08:52:23;;;;;;;;;;;11.40;99.90;;;;;;22712141;26;19940;-76
2024/04/10 09:02:24;;;;;;;;;;;11.20;99.90;;;;;;22688528;26;19966;-76
2024/04/10 09:12:24;;;;;;;;;;;11.50;99.90;;;;;;22652325;26;19928;-78
2024/04/10 09:22:25;;;;;;;;;;;12.60;99.90;;;;;;22730191;26;19979;-77
2024/04/10 09:32:26;;;;;;;;;;;12.20;99.90;;;;;;22691516;26;19936;-77
2024/04/10 09:42:27;;;;;;;;;;;12.60;99.90;;;;;;22743135;26;20008;-77
2024/04/10 09:52:28;;;;;;;;;;;12.90;99.90;;;;;;22734198;26;19935;-78
2024/04/10 10:02:29;;;;;;;;;;;12.40;99.90;;;;;;22729376;26;19934;-78
2024/04/10 10:12:29;;;;;;;;;;;12.60;99.90;;;;;;22735556;26;19928;-77
2024/04/10 10:22:30;;;;;;;;;;;13.80;99.90;;;;;;22699550;26;19928;-77
2024/04/10 10:32:30;;;;;;;;;;;13.50;99.90;;;;;;22730330;26;20054;-78
2024/04/10 10:42:31;;;;;;;;;;;13.50;99.90;;;;;;22693072;26;19940;-79
2024/04/10 10:52:32;;;;;;;;;;;12.10;99.90;;;;;;22684153;26;19927;-80
2024/04/10 11:02:33;;;;;;;;;;;12.00;99.90;;;;;;22773723;26;19928;-79
2024/04/10 11:12:33;;;;;;;;;;;11.90;99.90;;;;;;22709236;26;19935;-79
2024/04/10 11:22:34;;;;;;;;;;;12.20;99.90;;;;;;22746611;26;19939;-78
2024/04/10 11:32:34;;;;;;;;;;;12.30;99.90;;;;;;22706272;26;19936;-78
2024/04/10 11:42:35;;;;;;;;;;;12.40;99.90;;;;;;22589973;26;19932;-77
2024/04/10 11:52:36;;;;;;;;;;;13.00;99.90;;;;;;22593212;26;20286;-78
2024/04/10 12:02:37;;;;;;;;;;;12.80;99.90;;;;;;22587392;26;20001;-79
2024/04/10 12:12:38;;;;;;;;;;;12.20;99.90;;;;;;22593435;26;19945;-78
2024/04/10 12:22:39;;;;;;;;;;;14.10;99.90;;;;;;22579259;26;19958;-77
2024/04/10 12:32:40;;;;;;;;;;;14.80;99.90;;;;;;22576471;26;20659;-81
2024/04/10 12:42:41;;;;;;;;;;;13.80;99.90;;;;;;22653022;26;19928;-77
2024/04/10 12:52:41;;;;;;;;;;;13.50;99.90;;;;;;22682436;26;19931;-77
2024/04/10 13:02:43;;;;;;;;;;;13.30;99.90;;;;;;22717769;26;19929;-78
2024/04/10 13:12:44;;;;;;;;;;;13.60;99.90;;;;;;22720943;26;19928;-78
2024/04/10 13:22:46;;;;;;;;;;;13.80;99.90;;;;;;22706387;26;20278;-77
2024/04/10 13:32:47;;;;;;;;;;;13.70;99.90;;;;;;22642414;26;19982;-78
2024/04/10 13:42:48;;;;;;;;;;;15.20;99.90;;;;;;22737725;26;20298;-79
2024/04/10 13:52:48;;;;;;;;;;;15.60;99.90;;;;;;22673469;26;19939;-78
2024/04/10 14:02:50;;;;;;;;;;;15.60;99.90;;;;;;22671875;26;19929;-79
2024/04/10 14:12:50;;;;;;;;;;;15.30;99.90;;;;;;22695106;26;19928;-79
2024/04/10 14:22:51;;;;;;;;;;;15.30;99.90;;;;;;22672750;26;19928;-76
2024/04/10 14:32:52;;;;;;;;;;;14.70;99.90;;;;;;22682654;26;19990;-77
2024/04/10 14:42:56;;;;;;;;;;;14.30;99.90;;;;;;22644408;26;19928;-76
2024/04/10 14:52:56;;;;;;;;;;;14.30;99.90;;;;;;22664462;26;19932;-76
2024/04/10 15:02:57;;;;;;;;;;;14.50;99.90;;;;;;22709723;26;19932;-76
2024/04/10 15:12:58;;;;;;;;;;;14.00;99.90;;;;;;22593376;26;20411;-76
2024/04/10 15:22:58;;;;;;;;;;;14.00;99.90;;;;;;22680152;26;20406;-77
2024/04/10 15:32:59;;;;;;;;;;;13.60;99.90;;;;;;22678518;26;19980;-76
2024/04/10 15:43:00;;;;;;;;;;;13.90;99.90;;;;;;22566479;26;19932;-75
2024/04/10 15:53:00;;;;;;;;;;;13.20;99.90;;;;;;22627320;26;19928;-75
2024/04/10 16:03:01;;;;;;;;;;;13.20;99.90;;;;;;22682316;26;19935;-72
2024/04/10 16:13:02;;;;;;;;;;;13.10;99.90;;;;;;22645282;26;20000;-75
2024/04/10 16:23:03;;;;;;;;;;;13.10;99.90;;;;;;22677696;26;19935;-75
2024/04/10 16:33:04;;;;;;;;;;;12.80;99.90;;;;;;22717177;26;19943;-75
2024/04/10 16:43:05;;;;;;;;;;;12.90;99.90;;;;;;22698628;26;19929;-75
2024/04/10 16:53:05;;;;;;;;;;;12.70;99.90;;;;;;22608527;26;19932;-76
2024/04/10 17:03:09;;;;;;;;;;;12.70;99.90;;;;;;22720320;26;19936;-76
2024/04/10 17:13:10;;;;;;;;;;;12.70;99.90;;;;;;22710258;26;19939;-76
2024/04/10 17:23:11;;;;;;;;;;;12.50;99.90;;;;;;22675143;26;19928;-76
2024/04/10 17:33:11;;;;;;;;;;;12.50;99.90;;;;;;22726576;26;20271;-77
2024/04/10 17:43:12;;;;;;;;;;;12.10;99.90;;;;;;22713744;26;19948;-77
2024/04/10 17:53:13;;;;;;;;;;;11.30;99.90;;;;;;22713267;26;19948;-77
2024/04/10 18:03:13;;;;;;;;;;;10.70;99.90;;;;;;22711869;26;19935;-76
2024/04/10 18:13:14;;;;;;;;;;;9.90;99.90;;;;;;22710943;26;19934;-76
2024/04/10 18:23:15;;;;;;;;;;;9.20;99.90;;;;;;22696798;26;19928;-76
2024/04/10 18:33:15;;;;;;;;;;;8.90;99.90;;;;;;22709966;26;19927;-76
2024/04/10 18:43:16;;;;;;;;;;;8.20;99.90;;;;;;22709740;26;19933;-76
2024/04/10 18:53:17;;;;;;;;;;;8.10;99.90;;;;;;22708037;26;19928;-76
2024/04/10 19:03:18;;;;;;;;;;;8.10;99.90;;;;;;22709537;26;20324;-76
2024/04/10 19:13:18;;;;;;;;;;;7.70;99.90;;;;;;22709992;26;19935;-76
2024/04/10 19:23:20;;;;;;;;;;;7.20;99.90;;;;;;22711466;26;19950;-75
2024/04/10 19:33:23;;;;;;;;;;;6.30;99.90;;;;;;22711659;26;20359;-74
2024/04/10 19:43:24;;;;;;;;;;;6.50;99.90;;;;;;22614142;26;20000;-75
2024/04/10 19:53:24;;;;;;;;;;;6.10;99.90;;;;;;22618255;26;19928;-76
2024/04/10 20:03:25;;;;;;;;;;;6.30;99.90;;;;;;22707491;26;19998;-76
2024/04/10 20:13:26;;;;;;;;;;;6.60;99.90;;;;;;22720316;26;19939;-76
2024/04/10 20:23:26;;;;;;;;;;;6.30;99.90;;;;;;22708458;26;20508;-76
2024/04/10 20:33:27;;;;;;;;;;;6.00;99.90;;;;;;22649784;26;19928;-75
2024/04/10 20:43:28;;;;;;;;;;;5.70;99.90;;;;;;22653193;26;20466;-75
2024/04/10 20:53:31;;;;;;;;;;;5.70;99.90;;;;;;22630137;26;19998;-76
2024/04/10 21:03:32;;;;;;;;;;;5.60;99.90;;;;;;22634346;26;19936;-76
2024/04/10 22:15:27;;;;;;;;;;;4.70;99.90;;;;;;22675819;26;19928;-76
2024/04/10 22:25:28;;;;;;;;;;;4.60;99.90;;;;;;22661761;26;19929;-77
2024/04/10 22:35:29;;;;;;;;;;;4.60;99.90;;;;;;22653775;26;20374;-77
2024/04/10 22:45:30;;;;;;;;;;;4.60;99.90;;;;;;22664367;26;19932;-75
2024/04/10 22:55:30;;;;;;;;;;;4.30;99.90;;;;;;22703868;26;19928;-76
2024/04/10 23:05:32;;;;;;;;;;;4.30;99.90;;;;;;22697697;26;19935;-76
2024/04/10 23:15:32;;;;;;;;;;;4.30;99.90;;;;;;22710032;26;19928;-75
2024/04/10 23:25:33;;;;;;;;;;;4.20;99.90;;;;;;22686904;26;19936;-76
2024/04/10 23:35:34;;;;;;;;;;;4.30;99.90;;;;;;22657440;26;20450;-76
2024/04/10 23:45:35;;;;;;;;;;;4.00;99.90;;;;;;22663126;26;19928;-76
2024/04/10 23:55:35;;;;;;;;;;;3.90;99.90;;;;;;22680052;26;19928;-76
